^^
Station Historical Data
Daily Summary for April 27, 2017 Units:  Both    English   Metric
« Previous Day
Next Day »
Daily Weekly Monthly Yearly Custom
  High: Low: Average:
Temperature: 76.8 °F /  24.9 °C 48.9 °F /  9.4 °C 61.7 °F /  16.5 °C
Dew Point: 48.0 °F /  8.9 °C 42.8 °F /  6 °C 45.6 °F /  7.6 °C
Humidity: 82% 30% 59%
Wind Speed: 6.0mph /  9.7km/h - 0.8mph /  1.3km/h
Wind Gust: 11.0mph /  17.7km/h - -
Wind- - ESE
Pressure: 30.09 in /  1018.8 hPa 29.96 in /  1014.4 hPa -
Precipitation: 0.00 in /  0 mm    
Historical Graphs
 
 
Tabular Data for April 27, 2017
Time Temperature Dew Point Pressure Wind Wind Speed Wind Gust Humidity Rainfall Rate (Hourly) solar Conditions
00:03 53.1 °F /  11.7 °C 46.0 °F /  7.8 °C 30.02in /  1016.5hPa Calm   1.0mph /  1.6km/h 77% 0.00in /  0mm 0.0 W/m2
00:09 53.1 °F /  11.7 °C 46.0 °F /  7.8 °C 30.02in /  1016.5hPa ENE 0.9mph /  1.4km/h 1.0mph /  1.6km/h 77% 0.00in /  0mm 0.0 W/m2
00:15 53.1 °F /  11.7 °C 46.0 °F /  7.8 °C 30.02in /  1016.5hPa Calm   1.0mph /  1.6km/h 77% 0.00in /  0mm 0.0 W/m2
00:21 53.1 °F /  11.7 °C 46.0 °F /  7.8 °C 30.02in /  1016.5hPa Calm   1.0mph /  1.6km/h 77% 0.00in /  0mm 0.0 W/m2
00:27 52.9 °F /  11.6 °C 45.9 °F /  7.7 °C 30.02in /  1016.5hPa Calm   1.0mph /  1.6km/h 77% 0.00in /  0mm 0.0 W/m2
00:33 52.9 °F /  11.6 °C 45.9 °F /  7.7 °C 30.02in /  1016.5hPa Calm     77% 0.00in /  0mm 0.0 W/m2
00:39 52.5 °F /  11.4 °C 45.5 °F /  7.5 °C 30.02in /  1016.5hPa Calm     77% 0.00in /  0mm 0.0 W/m2
00:45 52.3 °F /  11.3 °C 45.7 °F /  7.6 °C 30.02in /  1016.5hPa Calm     78% 0.00in /  0mm 0.0 W/m2
00:51 52.2 °F /  11.2 °C 45.9 °F /  7.7 °C 30.02in /  1016.5hPa Calm     79% 0.00in /  0mm 0.0 W/m2
00:58 52.0 °F /  11.1 °C 45.7 °F /  7.6 °C 30.02in /  1016.5hPa Calm   2.0mph /  3.2km/h 79% 0.00in /  0mm 0.0 W/m2
01:04 51.8 °F /  11 °C 45.5 °F /  7.5 °C 30.02in /  1016.5hPa Calm     79% 0.00in /  0mm 0.0 W/m2
01:10 51.6 °F /  10.9 °C 45.3 °F /  7.4 °C 30.02in /  1016.5hPa Calm     79% 0.00in /  0mm 0.0 W/m2
01:16 51.6 °F /  10.9 °C 45.7 °F /  7.6 °C 30.02in /  1016.5hPa Calm   1.0mph /  1.6km/h 80% 0.00in /  0mm 0.0 W/m2
01:22 51.4 °F /  10.8 °C 45.5 °F /  7.5 °C 30.02in /  1016.5hPa Calm   1.0mph /  1.6km/h 80% 0.00in /  0mm 0.0 W/m2
01:28 51.3 °F /  10.7 °C 45.3 °F /  7.4 °C 30.02in /  1016.5hPa Calm   1.0mph /  1.6km/h 80% 0.00in /  0mm 0.0 W/m2
01:35 51.3 °F /  10.7 °C 45.7 °F /  7.6 °C 30.01in /  1016.1hPa Calm   1.0mph /  1.6km/h 81% 0.00in /  0mm 0.0 W/m2
01:41 51.3 °F /  10.7 °C 45.3 °F /  7.4 °C 30.01in /  1016.1hPa East 0.9mph /  1.4km/h 2.0mph /  3.2km/h 80% 0.00in /  0mm 0.0 W/m2
01:47 51.3 °F /  10.7 °C 45.7 °F /  7.6 °C 30.01in /  1016.1hPa East 0.9mph /  1.4km/h 2.0mph /  3.2km/h 81% 0.00in /  0mm 0.0 W/m2
01:53 51.1 °F /  10.6 °C 45.5 °F /  7.5 °C 30.01in /  1016.1hPa Calm     81% 0.00in /  0mm 0.0 W/m2
01:59 51.1 °F /  10.6 °C 45.5 °F /  7.5 °C 30.01in /  1016.1hPa Calm   1.0mph /  1.6km/h 81% 0.00in /  0mm 0.0 W/m2
02:05 51.1 °F /  10.6 °C 45.5 °F /  7.5 °C 30.01in /  1016.1hPa Calm   1.0mph /  1.6km/h 81% 0.00in /  0mm 0.0 W/m2
02:11 50.7 °F /  10.4 °C 44.8 °F /  7.1 °C 30.01in /  1016.1hPa Calm   1.0mph /  1.6km/h 80% 0.00in /  0mm 0.0 W/m2
02:17 50.7 °F /  10.4 °C 45.1 °F /  7.3 °C 30.01in /  1016.1hPa Calm   1.0mph /  1.6km/h 81% 0.00in /  0mm 0.0 W/m2
02:23 50.7 °F /  10.4 °C 45.1 °F /  7.3 °C 30.01in /  1016.1hPa Calm   1.0mph /  1.6km/h 81% 0.00in /  0mm 0.0 W/m2
02:29 50.7 °F /  10.4 °C 45.1 °F /  7.3 °C 30.01in /  1016.1hPa NE 0.9mph /  1.4km/h 3.0mph /  4.8km/h 81% 0.00in /  0mm 0.0 W/m2
02:36 50.7 °F /  10.4 °C 44.8 °F /  7.1 °C 30.01in /  1016.1hPa East 2.0mph /  3.2km/h 3.0mph /  4.8km/h 80% 0.00in /  0mm 0.0 W/m2
02:42 50.9 °F /  10.5 °C 45.0 °F /  7.2 °C 30.01in /  1016.1hPa NE 0.9mph /  1.4km/h 2.0mph /  3.2km/h 80% 0.00in /  0mm 0.0 W/m2
02:48 50.9 °F /  10.5 °C 45.3 °F /  7.4 °C 30.01in /  1016.1hPa East 0.9mph /  1.4km/h 3.0mph /  4.8km/h 81% 0.00in /  0mm 0.0 W/m2
02:54 50.9 °F /  10.5 °C 45.3 °F /  7.4 °C 30.01in /  1016.1hPa NE 2.0mph /  3.2km/h 2.0mph /  3.2km/h 81% 0.00in /  0mm 0.0 W/m2
03:00 50.7 °F /  10.4 °C 45.1 °F /  7.3 °C 30.01in /  1016.1hPa Calm   1.0mph /  1.6km/h 81% 0.00in /  0mm 0.0 W/m2
03:06 50.5 °F /  10.3 °C 45.0 °F /  7.2 °C 30.00in /  1015.8hPa East 0.9mph /  1.4km/h 2.0mph /  3.2km/h 81% 0.00in /  0mm 0.0 W/m2
03:12 50.5 °F /  10.3 °C 45.0 °F /  7.2 °C 30.01in /  1016.1hPa Calm   1.0mph /  1.6km/h 81% 0.00in /  0mm 0.0 W/m2
03:18 50.4 °F /  10.2 °C 45.1 °F /  7.3 °C 30.01in /  1016.1hPa ESE 0.9mph /  1.4km/h 2.0mph /  3.2km/h 82% 0.00in /  0mm 0.0 W/m2
03:24 50.2 °F /  10.1 °C 45.0 °F /  7.2 °C 30.01in /  1016.1hPa Calm   2.0mph /  3.2km/h 82% 0.00in /  0mm 0.0 W/m2
03:30 50.2 °F /  10.1 °C 45.0 °F /  7.2 °C 30.01in /  1016.1hPa Calm   1.0mph /  1.6km/h 82% 0.00in /  0mm 0.0 W/m2
03:36 50.0 °F /  10 °C 44.8 °F /  7.1 °C 30.01in /  1016.1hPa Calm   1.0mph /  1.6km/h 82% 0.00in /  0mm 0.0 W/m2
03:42 49.8 °F /  9.9 °C 44.6 °F /  7 °C 30.01in /  1016.1hPa East 0.9mph /  1.4km/h 2.0mph /  3.2km/h 82% 0.00in /  0mm 0.0 W/m2
03:48 49.8 °F /  9.9 °C 44.6 °F /  7 °C 30.01in /  1016.1hPa Calm   1.0mph /  1.6km/h 82% 0.00in /  0mm 0.0 W/m2
03:55 49.6 °F /  9.8 °C 44.4 °F /  6.9 °C 30.01in /  1016.1hPa Calm   1.0mph /  1.6km/h 82% 0.00in /  0mm 0.0 W/m2
04:01 49.5 °F /  9.7 °C 44.2 °F /  6.8 °C 30.01in /  1016.1hPa Calm   2.0mph /  3.2km/h 82% 0.00in /  0mm 0.0 W/m2
04:07 49.5 °F /  9.7 °C 44.2 °F /  6.8 °C 30.01in /  1016.1hPa Calm   1.0mph /  1.6km/h 82% 0.00in /  0mm 0.0 W/m2
04:13 49.5 °F /  9.7 °C 44.2 °F /  6.8 °C 30.01in /  1016.1hPa Calm   1.0mph /  1.6km/h 82% 0.00in /  0mm 0.0 W/m2
04:19 49.3 °F /  9.6 °C 44.1 °F /  6.7 °C 30.01in /  1016.1hPa Calm     82% 0.00in /  0mm 0.0 W/m2
04:25 49.3 °F /  9.6 °C 44.1 °F /  6.7 °C 30.01in /  1016.1hPa Calm   2.0mph /  3.2km/h 82% 0.00in /  0mm 0.0 W/m2
04:32 49.3 °F /  9.6 °C 44.1 °F /  6.7 °C 30.01in /  1016.1hPa Calm   1.0mph /  1.6km/h 82% 0.00in /  0mm 0.0 W/m2
04:38 49.3 °F /  9.6 °C 44.1 °F /  6.7 °C 30.02in /  1016.5hPa Calm   1.0mph /  1.6km/h 82% 0.00in /  0mm 0.0 W/m2
04:44 49.1 °F /  9.5 °C 43.5 °F /  6.4 °C 30.02in /  1016.5hPa Calm   1.0mph /  1.6km/h 81% 0.00in /  0mm 0.0 W/m2
04:50 48.9 °F /  9.4 °C 43.3 °F /  6.3 °C 30.02in /  1016.5hPa Calm     81% 0.00in /  0mm 0.0 W/m2
04:56 48.9 °F /  9.4 °C 43.3 °F /  6.3 °C 30.02in /  1016.5hPa Calm   3.0mph /  4.8km/h 81% 0.00in /  0mm 0.0 W/m2
05:02 49.3 °F /  9.6 °C 43.3 °F /  6.3 °C 30.02in /  1016.5hPa NE 0.9mph /  1.4km/h 6.0mph /  9.7km/h 80% 0.00in /  0mm 0.0 W/m2
05:08 49.8 °F /  9.9 °C 43.5 °F /  6.4 °C 30.02in /  1016.5hPa Calm   4.0mph /  6.4km/h 79% 0.00in /  0mm 0.0 W/m2
05:14 50.4 °F /  10.2 °C 43.3 °F /  6.3 °C 30.02in /  1016.5hPa ENE 0.9mph /  1.4km/h 3.0mph /  4.8km/h 77% 0.00in /  0mm 0.0 W/m2
05:20 50.5 °F /  10.3 °C 43.5 °F /  6.4 °C 30.02in /  1016.5hPa ENE 0.9mph /  1.4km/h 3.0mph /  4.8km/h 77% 0.00in /  0mm 0.0 W/m2
05:26 50.5 °F /  10.3 °C 43.5 °F /  6.4 °C 30.03in /  1016.8hPa Calm   1.0mph /  1.6km/h 77% 0.00in /  0mm 0.0 W/m2
05:32 50.5 °F /  10.3 °C 43.5 °F /  6.4 °C 30.03in /  1016.8hPa Calm   2.0mph /  3.2km/h 77% 0.00in /  0mm 0.0 W/m2
05:38 50.4 °F /  10.2 °C 43.3 °F /  6.3 °C 30.03in /  1016.8hPa Calm   2.0mph /  3.2km/h 77% 0.00in /  0mm 0.0 W/m2
05:45 50.2 °F /  10.1 °C 43.5 °F /  6.4 °C 30.03in /  1016.8hPa Calm   3.0mph /  4.8km/h 78% 0.00in /  0mm 0.0 W/m2
05:51 50.2 °F /  10.1 °C 43.5 °F /  6.4 °C 30.03in /  1016.8hPa Calm   1.0mph /  1.6km/h 78% 0.00in /  0mm 0.0 W/m2
05:57 49.8 °F /  9.9 °C 43.5 °F /  6.4 °C 30.04in /  1017.2hPa ENE 0.9mph /  1.4km/h 3.0mph /  4.8km/h 79% 0.00in /  0mm 0.0 W/m2
06:03 49.6 °F /  9.8 °C 43.3 °F /  6.3 °C 30.04in /  1017.2hPa Calm   1.0mph /  1.6km/h 79% 0.00in /  0mm 0.0 W/m2
06:09 49.5 °F /  9.7 °C 43.2 °F /  6.2 °C 30.04in /  1017.2hPa Calm   1.0mph /  1.6km/h 79% 0.00in /  0mm 0.0 W/m2
06:15 49.3 °F /  9.6 °C 43.3 °F /  6.3 °C 30.04in /  1017.2hPa ESE 0.9mph /  1.4km/h 4.0mph /  6.4km/h 80% 0.00in /  0mm 5.0 W/m2
06:21 49.3 °F /  9.6 °C 43.3 °F /  6.3 °C 30.04in /  1017.2hPa Calm   1.0mph /  1.6km/h 80% 0.00in /  0mm 7.0 W/m2
06:27 49.3 °F /  9.6 °C 43.3 °F /  6.3 °C 30.04in /  1017.2hPa Calm   1.0mph /  1.6km/h 80% 0.00in /  0mm 11.0 W/m2
06:34 49.3 °F /  9.6 °C 43.3 °F /  6.3 °C 30.05in /  1017.5hPa Calm   2.0mph /  3.2km/h 80% 0.00in /  0mm 12.0 W/m2
06:40 49.3 °F /  9.6 °C 43.3 °F /  6.3 °C 30.05in /  1017.5hPa Calm   1.0mph /  1.6km/h 80% 0.00in /  0mm 14.0 W/m2
06:46 49.5 °F /  9.7 °C 43.9 °F /  6.6 °C 30.05in /  1017.5hPa Calm   1.0mph /  1.6km/h 81% 0.00in /  0mm 16.0 W/m2
06:52 49.6 °F /  9.8 °C 44.1 °F /  6.7 °C 30.05in /  1017.5hPa Calm     81% 0.00in /  0mm 16.0 W/m2
06:58 49.8 °F /  9.9 °C 44.2 °F /  6.8 °C 30.06in /  1017.8hPa Calm     81% 0.00in /  0mm 18.0 W/m2
07:04 50.0 °F /  10 °C 44.8 °F /  7.1 °C 30.06in /  1017.8hPa Calm     82% 0.00in /  0mm 19.0 W/m2
07:10 50.2 °F /  10.1 °C 45.0 °F /  7.2 °C 30.06in /  1017.8hPa Calm     82% 0.00in /  0mm 21.0 W/m2
07:17 50.5 °F /  10.3 °C 45.3 °F /  7.4 °C 30.06in /  1017.8hPa Calm     82% 0.00in /  0mm 23.0 W/m2
07:23 51.3 °F /  10.7 °C 46.0 °F /  7.8 °C 30.06in /  1017.8hPa Calm     82% 0.00in /  0mm 26.0 W/m2
07:29 52.0 °F /  11.1 °C 46.4 °F /  8 °C 30.06in /  1017.8hPa Calm     81% 0.00in /  0mm 25.0 W/m2
07:35 52.3 °F /  11.3 °C 46.4 °F /  8 °C 30.06in /  1017.8hPa Calm     80% 0.00in /  0mm 25.0 W/m2
07:41 53.1 °F /  11.7 °C 47.1 °F /  8.4 °C 30.06in /  1017.8hPa East 0.9mph /  1.4km/h 2.0mph /  3.2km/h 80% 0.00in /  0mm 26.0 W/m2
07:47 53.8 °F /  12.1 °C 46.8 °F /  8.2 °C 30.07in /  1018.2hPa Calm     77% 0.00in /  0mm 26.0 W/m2
07:53 54.1 °F /  12.3 °C 46.4 °F /  8 °C 30.07in /  1018.2hPa NNE 0.9mph /  1.4km/h 1.0mph /  1.6km/h 75% 0.00in /  0mm 26.0 W/m2
08:00 55.0 °F /  12.8 °C 45.5 °F /  7.5 °C 30.07in /  1018.2hPa Calm   1.0mph /  1.6km/h 70% 0.00in /  0mm 28.0 W/m2
08:06 56.1 °F /  13.4 °C 45.3 °F /  7.4 °C 30.08in /  1018.5hPa Calm   1.0mph /  1.6km/h 67% 0.00in /  0mm 28.0 W/m2
08:12 57.2 °F /  14 °C 45.5 °F /  7.5 °C 30.08in /  1018.5hPa Calm   1.0mph /  1.6km/h 65% 0.00in /  0mm 30.0 W/m2
08:18 58.3 °F /  14.6 °C 45.0 °F /  7.2 °C 30.08in /  1018.5hPa Calm     61% 0.00in /  0mm 30.0 W/m2
08:24 59.2 °F /  15.1 °C 44.4 °F /  6.9 °C 30.08in /  1018.5hPa Calm   2.0mph /  3.2km/h 58% 0.00in /  0mm 46.0 W/m2
08:30 60.1 °F /  15.6 °C 44.8 °F /  7.1 °C 30.08in /  1018.5hPa Calm   2.0mph /  3.2km/h 57% 0.00in /  0mm 489.0 W/m2
08:36 61.3 °F /  16.3 °C 45.0 °F /  7.2 °C 30.09in /  1018.8hPa Calm   3.0mph /  4.8km/h 55% 0.00in /  0mm 510.0 W/m2
08:43 62.4 °F /  16.9 °C 45.1 °F /  7.3 °C 30.09in /  1018.8hPa Calm   4.0mph /  6.4km/h 53% 0.00in /  0mm 529.0 W/m2
08:49 63.3 °F /  17.4 °C 45.3 °F /  7.4 °C 30.09in /  1018.8hPa NNW 0.9mph /  1.4km/h 3.0mph /  4.8km/h 52% 0.00in /  0mm 548.0 W/m2
08:55 64.8 °F /  18.2 °C 46.2 °F /  7.9 °C 30.09in /  1018.8hPa Calm   2.0mph /  3.2km/h 51% 0.00in /  0mm 566.0 W/m2
09:01 66.0 °F /  18.9 °C 45.7 °F /  7.6 °C 30.09in /  1018.8hPa Calm   4.0mph /  6.4km/h 48% 0.00in /  0mm 584.0 W/m2
09:07 66.7 °F /  19.3 °C 45.9 °F /  7.7 °C 30.08in /  1018.5hPa Calm   2.0mph /  3.2km/h 47% 0.00in /  0mm 603.0 W/m2
09:13 67.3 °F /  19.6 °C 46.4 °F /  8 °C 30.08in /  1018.5hPa Calm   3.0mph /  4.8km/h 47% 0.00in /  0mm 619.0 W/m2
09:19 68.0 °F /  20 °C 45.9 °F /  7.7 °C 30.08in /  1018.5hPa Calm   1.0mph /  1.6km/h 45% 0.00in /  0mm 635.0 W/m2
09:26 68.5 °F /  20.3 °C 45.7 °F /  7.6 °C 30.08in /  1018.5hPa North 2.0mph /  3.2km/h 3.0mph /  4.8km/h 44% 0.00in /  0mm 650.0 W/m2
09:32 68.7 °F /  20.4 °C 46.6 °F /  8.1 °C 30.08in /  1018.5hPa West 0.9mph /  1.4km/h 1.0mph /  1.6km/h 45% 0.00in /  0mm 663.0 W/m2
09:38 68.7 °F /  20.4 °C 46.6 °F /  8.1 °C 30.08in /  1018.5hPa NNW 0.9mph /  1.4km/h 2.0mph /  3.2km/h 45% 0.00in /  0mm 679.0 W/m2
09:44 69.1 °F /  20.6 °C 46.2 °F /  7.9 °C 30.08in /  1018.5hPa NNE 0.9mph /  1.4km/h 2.0mph /  3.2km/h 44% 0.00in /  0mm 691.0 W/m2
09:50 69.4 °F /  20.8 °C 47.1 °F /  8.4 °C 30.08in /  1018.5hPa West 0.9mph /  1.4km/h 1.0mph /  1.6km/h 45% 0.00in /  0mm 705.0 W/m2
09:56 69.6 °F /  20.9 °C 47.3 °F /  8.5 °C 30.07in /  1018.2hPa Calm   2.0mph /  3.2km/h 45% 0.00in /  0mm 717.0 W/m2
10:02 69.6 °F /  20.9 °C 46.8 °F /  8.2 °C 30.07in /  1018.2hPa NNW 2.0mph /  3.2km/h 4.0mph /  6.4km/h 44% 0.00in /  0mm 729.0 W/m2
10:08 70.0 °F /  21.1 °C 46.4 °F /  8 °C 30.06in /  1017.8hPa ESE 2.0mph /  3.2km/h 2.0mph /  3.2km/h 43% 0.00in /  0mm 740.0 W/m2
10:14 70.5 °F /  21.4 °C 46.9 °F /  8.3 °C 30.06in /  1017.8hPa North 0.9mph /  1.4km/h 3.0mph /  4.8km/h 43% 0.00in /  0mm 751.0 W/m2
10:20 71.1 °F /  21.7 °C 47.5 °F /  8.6 °C 30.06in /  1017.8hPa West 2.9mph /  4.7km/h 5.0mph /  8km/h 43% 0.00in /  0mm 758.0 W/m2
10:27 71.2 °F /  21.8 °C 46.4 °F /  8 °C 30.06in /  1017.8hPa NNE 6.0mph /  9.7km/h 6.0mph /  9.7km/h 41% 0.00in /  0mm 770.0 W/m2
10:33 71.1 °F /  21.7 °C 46.2 °F /  7.9 °C 30.06in /  1017.8hPa WSW 0.9mph /  1.4km/h 2.0mph /  3.2km/h 41% 0.00in /  0mm 777.0 W/m2
10:39 70.2 °F /  21.2 °C 46.6 °F /  8.1 °C 30.06in /  1017.8hPa West 0.9mph /  1.4km/h 5.0mph /  8km/h 43% 0.00in /  0mm 786.0 W/m2
10:45 70.7 °F /  21.5 °C 47.1 °F /  8.4 °C 30.05in /  1017.5hPa NW 2.9mph /  4.7km/h 5.0mph /  8km/h 43% 0.00in /  0mm 793.0 W/m2
10:51 71.1 °F /  21.7 °C 46.8 °F /  8.2 °C 30.05in /  1017.5hPa NNE 4.9mph /  7.9km/h 5.0mph /  8km/h 42% 0.00in /  0mm 795.0 W/m2
10:57 71.6 °F /  22 °C 47.8 °F /  8.8 °C 30.05in /  1017.5hPa NW 0.9mph /  1.4km/h 3.0mph /  4.8km/h 43% 0.00in /  0mm 800.0 W/m2
11:03 72.0 °F /  22.2 °C 46.9 °F /  8.3 °C 30.04in /  1017.2hPa Calm   4.0mph /  6.4km/h 41% 0.00in /  0mm 812.0 W/m2
11:09 72.1 °F /  22.3 °C 47.1 °F /  8.4 °C 30.04in /  1017.2hPa NNW 2.0mph /  3.2km/h 7.0mph /  11.3km/h 41% 0.00in /  0mm 823.0 W/m2
11:16 72.9 °F /  22.7 °C 47.1 °F /  8.4 °C 30.04in /  1017.2hPa NNW 2.0mph /  3.2km/h 4.0mph /  6.4km/h 40% 0.00in /  0mm 824.0 W/m2
11:22 73.2 °F /  22.9 °C 47.5 °F /  8.6 °C 30.03in /  1016.8hPa WNW 0.9mph /  1.4km/h 4.0mph /  6.4km/h 40% 0.00in /  0mm 830.0 W/m2
11:28 73.6 °F /  23.1 °C 46.4 °F /  8 °C 30.03in /  1016.8hPa NNW 2.9mph /  4.7km/h 6.0mph /  9.7km/h 38% 0.00in /  0mm 828.0 W/m2
11:34 73.6 °F /  23.1 °C 47.1 °F /  8.4 °C 30.03in /  1016.8hPa Calm   1.0mph /  1.6km/h 39% 0.00in /  0mm 835.0 W/m2
11:40 73.4 °F /  23 °C 47.7 °F /  8.7 °C 30.02in /  1016.5hPa Calm   1.0mph /  1.6km/h 40% 0.00in /  0mm 875.0 W/m2
11:46 73.8 °F /  23.2 °C 48.0 °F /  8.9 °C 30.02in /  1016.5hPa ESE 2.0mph /  3.2km/h 6.0mph /  9.7km/h 40% 0.00in /  0mm 928.0 W/m2
11:52 74.1 °F /  23.4 °C 45.5 °F /  7.5 °C 30.03in /  1016.8hPa NNE 2.9mph /  4.7km/h 4.0mph /  6.4km/h 36% 0.00in /  0mm 322.0 W/m2
11:58 73.8 °F /  23.2 °C 44.4 °F /  6.9 °C 30.02in /  1016.5hPa Calm   1.0mph /  1.6km/h 35% 0.00in /  0mm 812.0 W/m2
12:05 74.1 °F /  23.4 °C 46.2 °F /  7.9 °C 30.02in /  1016.5hPa ENE 2.0mph /  3.2km/h 6.0mph /  9.7km/h 37% 0.00in /  0mm 918.0 W/m2
12:11 74.7 °F /  23.7 °C 45.1 °F /  7.3 °C 30.02in /  1016.5hPa NE 4.0mph /  6.4km/h 5.0mph /  8km/h 35% 0.00in /  0mm 842.0 W/m2
12:17 74.8 °F /  23.8 °C 44.6 °F /  7 °C 30.01in /  1016.1hPa ENE 2.9mph /  4.7km/h 4.0mph /  6.4km/h 34% 0.00in /  0mm 837.0 W/m2
12:23 75.6 °F /  24.2 °C 45.1 °F /  7.3 °C 30.01in /  1016.1hPa North 4.9mph /  7.9km/h 10.0mph /  16.1km/h 34% 0.00in /  0mm 823.0 W/m2
12:29 75.6 °F /  24.2 °C 45.1 °F /  7.3 °C 30.01in /  1016.1hPa NE 2.9mph /  4.7km/h 8.0mph /  12.9km/h 34% 0.00in /  0mm 809.0 W/m2
12:35 75.4 °F /  24.1 °C 44.2 °F /  6.8 °C 30.00in /  1015.8hPa Calm   6.0mph /  9.7km/h 33% 0.00in /  0mm 802.0 W/m2
12:41 75.0 °F /  23.9 °C 45.5 °F /  7.5 °C 30.00in /  1015.8hPa SSE 4.9mph /  7.9km/h 7.0mph /  11.3km/h 35% 0.00in /  0mm 798.0 W/m2
12:47 75.0 °F /  23.9 °C 43.9 °F /  6.6 °C 30.00in /  1015.8hPa NW 0.9mph /  1.4km/h 5.0mph /  8km/h 33% 0.00in /  0mm 788.0 W/m2
12:54 75.4 °F /  24.1 °C 44.2 °F /  6.8 °C 29.99in /  1015.5hPa NNE 2.0mph /  3.2km/h 5.0mph /  8km/h 33% 0.00in /  0mm 784.0 W/m2
13:00 75.7 °F /  24.3 °C 45.3 °F /  7.4 °C 29.99in /  1015.5hPa NE 4.0mph /  6.4km/h 4.0mph /  6.4km/h 34% 0.00in /  0mm 773.0 W/m2
13:06 76.1 °F /  24.5 °C 44.1 °F /  6.7 °C 29.99in /  1015.5hPa NW 2.0mph /  3.2km/h 11.0mph /  17.7km/h 32% 0.00in /  0mm 763.0 W/m2
13:12 75.7 °F /  24.3 °C 44.6 °F /  7 °C 29.98in /  1015.1hPa Calm   3.0mph /  4.8km/h 33% 0.00in /  0mm 754.0 W/m2
13:18 75.9 °F /  24.4 °C 45.5 °F /  7.5 °C 29.98in /  1015.1hPa NW 2.9mph /  4.7km/h 4.0mph /  6.4km/h 34% 0.00in /  0mm 747.0 W/m2
13:24 75.9 °F /  24.4 °C 45.5 °F /  7.5 °C 29.98in /  1015.1hPa NNW 2.9mph /  4.7km/h 5.0mph /  8km/h 34% 0.00in /  0mm 731.0 W/m2
13:31 75.9 °F /  24.4 °C 46.2 °F /  7.9 °C 29.97in /  1014.8hPa ENE 2.9mph /  4.7km/h 4.0mph /  6.4km/h 35% 0.00in /  0mm 724.0 W/m2
13:37 76.3 °F /  24.6 °C 45.9 °F /  7.7 °C 29.97in /  1014.8hPa NE 4.0mph /  6.4km/h 6.0mph /  9.7km/h 34% 0.00in /  0mm 721.0 W/m2
13:43 76.5 °F /  24.7 °C 46.0 °F /  7.8 °C 29.97in /  1014.8hPa NE 0.9mph /  1.4km/h 3.0mph /  4.8km/h 34% 0.00in /  0mm 717.0 W/m2
13:49 76.3 °F /  24.6 °C 45.9 °F /  7.7 °C 29.97in /  1014.8hPa North 2.0mph /  3.2km/h 2.0mph /  3.2km/h 34% 0.00in /  0mm 689.0 W/m2
13:55 76.6 °F /  24.8 °C 45.3 °F /  7.4 °C 29.97in /  1014.8hPa NNE 0.9mph /  1.4km/h 2.0mph /  3.2km/h 33% 0.00in /  0mm 684.0 W/m2
14:01 76.8 °F /  24.9 °C 46.4 °F /  8 °C 29.97in /  1014.8hPa ENE 0.9mph /  1.4km/h 5.0mph /  8km/h 34% 0.00in /  0mm 679.0 W/m2
14:07 76.6 °F /  24.8 °C 45.3 °F /  7.4 °C 29.96in /  1014.4hPa NNW 2.9mph /  4.7km/h 9.0mph /  14.5km/h 33% 0.00in /  0mm 652.0 W/m2
14:13 76.3 °F /  24.6 °C 45.9 °F /  7.7 °C 29.96in /  1014.4hPa Calm   2.0mph /  3.2km/h 34% 0.00in /  0mm 629.0 W/m2
14:19 76.3 °F /  24.6 °C 45.1 °F /  7.3 °C 29.96in /  1014.4hPa North 2.9mph /  4.7km/h 4.0mph /  6.4km/h 33% 0.00in /  0mm 617.0 W/m2
14:26 76.3 °F /  24.6 °C 45.9 °F /  7.7 °C 29.96in /  1014.4hPa East 2.9mph /  4.7km/h 7.0mph /  11.3km/h 34% 0.00in /  0mm 649.0 W/m2
14:32 76.3 °F /  24.6 °C 45.9 °F /  7.7 °C 29.96in /  1014.4hPa ENE 4.0mph /  6.4km/h 7.0mph /  11.3km/h 34% 0.00in /  0mm 626.0 W/m2
14:38 76.3 °F /  24.6 °C 45.1 °F /  7.3 °C 29.96in /  1014.4hPa NNE 2.9mph /  4.7km/h 3.0mph /  4.8km/h 33% 0.00in /  0mm 188.0 W/m2
14:44 75.9 °F /  24.4 °C 44.8 °F /  7.1 °C 29.96in /  1014.4hPa ENE 2.9mph /  4.7km/h 4.0mph /  6.4km/h 33% 0.00in /  0mm 156.0 W/m2
14:50 75.7 °F /  24.3 °C 46.2 °F /  7.9 °C 29.96in /  1014.4hPa Calm   6.0mph /  9.7km/h 35% 0.00in /  0mm 262.0 W/m2
14:56 75.7 °F /  24.3 °C 45.3 °F /  7.4 °C 29.96in /  1014.4hPa Calm   3.0mph /  4.8km/h 34% 0.00in /  0mm 515.0 W/m2
15:02 75.9 °F /  24.4 °C 43.9 °F /  6.6 °C 29.96in /  1014.4hPa NNE 2.9mph /  4.7km/h 5.0mph /  8km/h 32% 0.00in /  0mm 490.0 W/m2
15:08 75.9 °F /  24.4 °C 43.9 °F /  6.6 °C 29.96in /  1014.4hPa NNE 2.9mph /  4.7km/h 6.0mph /  9.7km/h 32% 0.00in /  0mm 468.0 W/m2
15:14 75.7 °F /  24.3 °C 43.7 °F /  6.5 °C 29.96in /  1014.4hPa East 0.9mph /  1.4km/h 2.0mph /  3.2km/h 32% 0.00in /  0mm 454.0 W/m2
15:21 75.9 °F /  24.4 °C 43.2 °F /  6.2 °C 29.96in /  1014.4hPa NW 2.0mph /  3.2km/h 3.0mph /  4.8km/h 31% 0.00in /  0mm 427.0 W/m2
15:27 76.5 °F /  24.7 °C 42.8 °F /  6 °C 29.96in /  1014.4hPa Calm   1.0mph /  1.6km/h 30% 0.00in /  0mm 399.0 W/m2
15:33 76.3 °F /  24.6 °C 44.2 °F /  6.8 °C 29.96in /  1014.4hPa NNE 2.0mph /  3.2km/h 4.0mph /  6.4km/h 32% 0.00in /  0mm 388.0 W/m2
15:39 75.9 °F /  24.4 °C 43.2 °F /  6.2 °C 29.96in /  1014.4hPa ENE 2.0mph /  3.2km/h 4.0mph /  6.4km/h 31% 0.00in /  0mm 374.0 W/m2
15:45 75.7 °F /  24.3 °C 43.7 °F /  6.5 °C 29.96in /  1014.4hPa ENE 0.9mph /  1.4km/h 4.0mph /  6.4km/h 32% 0.00in /  0mm 362.0 W/m2
15:51 75.4 °F /  24.1 °C 44.2 °F /  6.8 °C 29.96in /  1014.4hPa Calm   1.0mph /  1.6km/h 33% 0.00in /  0mm 202.0 W/m2
15:57 75.2 °F /  24 °C 44.1 °F /  6.7 °C 29.96in /  1014.4hPa ENE 0.9mph /  1.4km/h 3.0mph /  4.8km/h 33% 0.00in /  0mm 70.0 W/m2
16:04 75.0 °F /  23.9 °C 43.9 °F /  6.6 °C 29.96in /  1014.4hPa Calm   3.0mph /  4.8km/h 33% 0.00in /  0mm 54.0 W/m2
16:10 74.7 °F /  23.7 °C 43.7 °F /  6.5 °C 29.96in /  1014.4hPa Calm   1.0mph /  1.6km/h 33% 0.00in /  0mm 53.0 W/m2
16:16 74.1 °F /  23.4 °C 43.9 °F /  6.6 °C 29.96in /  1014.4hPa ENE 2.0mph /  3.2km/h 5.0mph /  8km/h 34% 0.00in /  0mm 42.0 W/m2
16:22 73.6 °F /  23.1 °C 43.5 °F /  6.4 °C 29.96in /  1014.4hPa Calm   5.0mph /  8km/h 34% 0.00in /  0mm 33.0 W/m2
16:28 73.0 °F /  22.8 °C 43.7 °F /  6.5 °C 29.96in /  1014.4hPa NE 0.9mph /  1.4km/h 2.0mph /  3.2km/h 35% 0.00in /  0mm 28.0 W/m2
16:34 72.7 °F /  22.6 °C 44.2 °F /  6.8 °C 29.96in /  1014.4hPa Calm   2.0mph /  3.2km/h 36% 0.00in /  0mm 28.0 W/m2
16:40 72.1 °F /  22.3 °C 43.7 °F /  6.5 °C 29.96in /  1014.4hPa Calm   3.0mph /  4.8km/h 36% 0.00in /  0mm 26.0 W/m2
16:46 71.6 °F /  22 °C 44.6 °F /  7 °C 29.96in /  1014.4hPa Calm   2.0mph /  3.2km/h 38% 0.00in /  0mm 23.0 W/m2
16:53 71.1 °F /  21.7 °C 44.2 °F /  6.8 °C 29.96in /  1014.4hPa Calm   2.0mph /  3.2km/h 38% 0.00in /  0mm 23.0 W/m2
16:59 70.7 °F /  21.5 °C 45.1 °F /  7.3 °C 29.96in /  1014.4hPa Calm     40% 0.00in /  0mm 19.0 W/m2
17:05 70.2 °F /  21.2 °C 45.3 °F /  7.4 °C 29.97in /  1014.8hPa Calm   1.0mph /  1.6km/h 41% 0.00in /  0mm 16.0 W/m2
17:11 69.8 °F /  21 °C 45.0 °F /  7.2 °C 29.97in /  1014.8hPa NE 2.9mph /  4.7km/h 3.0mph /  4.8km/h 41% 0.00in /  0mm 12.0 W/m2
17:17 69.4 °F /  20.8 °C 45.3 °F /  7.4 °C 29.97in /  1014.8hPa Calm   2.0mph /  3.2km/h 42% 0.00in /  0mm 9.0 W/m2
17:23 69.1 °F /  20.6 °C 46.2 °F /  7.9 °C 29.97in /  1014.8hPa East 0.9mph /  1.4km/h 1.0mph /  1.6km/h 44% 0.00in /  0mm 5.0 W/m2
17:29 68.7 °F /  20.4 °C 46.6 °F /  8.1 °C 29.98in /  1015.1hPa Calm   1.0mph /  1.6km/h 45% 0.00in /  0mm 0.0 W/m2
17:36 68.2 °F /  20.1 °C 46.0 °F /  7.8 °C 29.98in /  1015.1hPa Calm   2.0mph /  3.2km/h 45% 0.00in /  0mm 0.0 W/m2
17:42 67.6 °F /  19.8 °C 46.0 °F /  7.8 °C 29.98in /  1015.1hPa Calm   1.0mph /  1.6km/h 46% 0.00in /  0mm 0.0 W/m2
17:48 67.3 °F /  19.6 °C 46.9 °F /  8.3 °C 29.98in /  1015.1hPa Calm   1.0mph /  1.6km/h 48% 0.00in /  0mm 0.0 W/m2
17:54 66.7 °F /  19.3 °C 46.9 °F /  8.3 °C 29.98in /  1015.1hPa Calm     49% 0.00in /  0mm 0.0 W/m2
18:00 66.2 °F /  19 °C 46.9 °F /  8.3 °C 29.99in /  1015.5hPa ENE 0.9mph /  1.4km/h 1.0mph /  1.6km/h 50% 0.00in /  0mm 0.0 W/m2
18:06 65.7 °F /  18.7 °C 47.1 °F /  8.4 °C 29.99in /  1015.5hPa Calm     51% 0.00in /  0mm 0.0 W/m2
18:12 65.1 °F /  18.4 °C 47.5 °F /  8.6 °C 29.99in /  1015.5hPa Calm     53% 0.00in /  0mm 0.0 W/m2
18:18 64.8 °F /  18.2 °C 47.3 °F /  8.5 °C 29.99in /  1015.5hPa Calm     53% 0.00in /  0mm 0.0 W/m2
18:24 64.4 °F /  18 °C 47.5 °F /  8.6 °C 30.00in /  1015.8hPa Calm     54% 0.00in /  0mm 0.0 W/m2
18:31 64.0 °F /  17.8 °C 46.6 °F /  8.1 °C 30.00in /  1015.8hPa ENE 2.0mph /  3.2km/h 6.0mph /  9.7km/h 53% 0.00in /  0mm 0.0 W/m2
18:37 64.0 °F /  17.8 °C 47.1 °F /  8.4 °C 30.00in /  1015.8hPa NE 0.9mph /  1.4km/h 2.0mph /  3.2km/h 54% 0.00in /  0mm 0.0 W/m2
18:43 64.0 °F /  17.8 °C 47.1 °F /  8.4 °C 30.00in /  1015.8hPa NE 0.9mph /  1.4km/h 3.0mph /  4.8km/h 54% 0.00in /  0mm 0.0 W/m2
18:49 64.0 °F /  17.8 °C 47.1 °F /  8.4 °C 30.01in /  1016.1hPa NE 0.9mph /  1.4km/h 1.0mph /  1.6km/h 54% 0.00in /  0mm 0.0 W/m2
18:55 63.9 °F /  17.7 °C 46.9 °F /  8.3 °C 30.01in /  1016.1hPa NE 0.9mph /  1.4km/h 4.0mph /  6.4km/h 54% 0.00in /  0mm 0.0 W/m2
19:01 63.9 °F /  17.7 °C 46.9 °F /  8.3 °C 30.01in /  1016.1hPa NE 2.0mph /  3.2km/h 3.0mph /  4.8km/h 54% 0.00in /  0mm 0.0 W/m2
19:07 63.9 °F /  17.7 °C 46.9 °F /  8.3 °C 30.01in /  1016.1hPa NE 0.9mph /  1.4km/h 3.0mph /  4.8km/h 54% 0.00in /  0mm 0.0 W/m2
19:14 63.9 °F /  17.7 °C 46.4 °F /  8 °C 30.01in /  1016.1hPa NE 4.0mph /  6.4km/h 6.0mph /  9.7km/h 53% 0.00in /  0mm 0.0 W/m2
19:20 63.7 °F /  17.6 °C 46.2 °F /  7.9 °C 30.01in /  1016.1hPa Calm   3.0mph /  4.8km/h 53% 0.00in /  0mm 0.0 W/m2
19:26 63.7 °F /  17.6 °C 46.8 °F /  8.2 °C 30.01in /  1016.1hPa NE 0.9mph /  1.4km/h 2.0mph /  3.2km/h 54% 0.00in /  0mm 0.0 W/m2
19:32 63.3 °F /  17.4 °C 46.4 °F /  8 °C 30.02in /  1016.5hPa Calm   3.0mph /  4.8km/h 54% 0.00in /  0mm 0.0 W/m2
19:38 63.1 °F /  17.3 °C 46.8 °F /  8.2 °C 30.02in /  1016.5hPa East 2.0mph /  3.2km/h 4.0mph /  6.4km/h 55% 0.00in /  0mm 0.0 W/m2
19:44 63.0 °F /  17.2 °C 46.6 °F /  8.1 °C 30.03in /  1016.8hPa East 2.0mph /  3.2km/h 3.0mph /  4.8km/h 55% 0.00in /  0mm 0.0 W/m2
19:51 62.6 °F /  17 °C 46.8 °F /  8.2 °C 30.03in /  1016.8hPa East 0.9mph /  1.4km/h 1.0mph /  1.6km/h 56% 0.00in /  0mm 0.0 W/m2
19:57 62.4 °F /  16.9 °C 46.6 °F /  8.1 °C 30.03in /  1016.8hPa ESE 2.0mph /  3.2km/h 5.0mph /  8km/h 56% 0.00in /  0mm 0.0 W/m2
20:03 62.1 °F /  16.7 °C 46.6 °F /  8.1 °C 30.03in /  1016.8hPa Calm   3.0mph /  4.8km/h 57% 0.00in /  0mm 0.0 W/m2
20:09 61.9 °F /  16.6 °C 46.9 °F /  8.3 °C 30.03in /  1016.8hPa Calm   2.0mph /  3.2km/h 58% 0.00in /  0mm 0.0 W/m2
20:15 61.7 °F /  16.5 °C 46.8 °F /  8.2 °C 30.04in /  1017.2hPa Calm     58% 0.00in /  0mm 0.0 W/m2
20:21 61.3 °F /  16.3 °C 46.4 °F /  8 °C 30.04in /  1017.2hPa Calm     58% 0.00in /  0mm 0.0 W/m2
20:27 61.2 °F /  16.2 °C 46.8 °F /  8.2 °C 30.04in /  1017.2hPa Calm     59% 0.00in /  0mm 0.0 W/m2
20:33 61.0 °F /  16.1 °C 46.9 °F /  8.3 °C 30.04in /  1017.2hPa Calm     60% 0.00in /  0mm 0.0 W/m2
20:39 60.4 °F /  15.8 °C 46.9 °F /  8.3 °C 30.04in /  1017.2hPa Calm     61% 0.00in /  0mm 0.0 W/m2
20:46 60.1 °F /  15.6 °C 47.5 °F /  8.6 °C 30.04in /  1017.2hPa Calm     63% 0.00in /  0mm 0.0 W/m2
20:52 59.5 °F /  15.3 °C 47.3 °F /  8.5 °C 30.04in /  1017.2hPa Calm     64% 0.00in /  0mm 0.0 W/m2
20:58 59.2 °F /  15.1 °C 47.5 °F /  8.6 °C 30.04in /  1017.2hPa Calm   1.0mph /  1.6km/h 65% 0.00in /  0mm 0.0 W/m2
21:04 58.6 °F /  14.8 °C 46.9 °F /  8.3 °C 30.04in /  1017.2hPa Calm   1.0mph /  1.6km/h 65% 0.00in /  0mm 0.0 W/m2
21:10 58.5 °F /  14.7 °C 47.1 °F /  8.4 °C 30.04in /  1017.2hPa Calm   1.0mph /  1.6km/h 66% 0.00in /  0mm 0.0 W/m2
21:16 58.1 °F /  14.5 °C 46.8 °F /  8.2 °C 30.05in /  1017.5hPa Calm   1.0mph /  1.6km/h 66% 0.00in /  0mm 0.0 W/m2
21:22 57.9 °F /  14.4 °C 46.9 °F /  8.3 °C 30.05in /  1017.5hPa Calm   1.0mph /  1.6km/h 67% 0.00in /  0mm 0.0 W/m2
21:28 57.7 °F /  14.3 °C 46.9 °F /  8.3 °C 30.05in /  1017.5hPa Calm   1.0mph /  1.6km/h 67% 0.00in /  0mm 0.0 W/m2
21:35 57.6 °F /  14.2 °C 47.1 °F /  8.4 °C 30.05in /  1017.5hPa Calm   1.0mph /  1.6km/h 68% 0.00in /  0mm 0.0 W/m2
21:41 57.4 °F /  14.1 °C 46.9 °F /  8.3 °C 30.05in /  1017.5hPa Calm     68% 0.00in /  0mm 0.0 W/m2
21:47 57.0 °F /  13.9 °C 46.9 °F /  8.3 °C 30.05in /  1017.5hPa Calm     69% 0.00in /  0mm 0.0 W/m2
21:53 57.0 °F /  13.9 °C 46.9 °F /  8.3 °C 30.05in /  1017.5hPa ENE 0.9mph /  1.4km/h 2.0mph /  3.2km/h 69% 0.00in /  0mm 0.0 W/m2
21:59 56.8 °F /  13.8 °C 47.1 °F /  8.4 °C 30.05in /  1017.5hPa Calm     70% 0.00in /  0mm 0.0 W/m2
22:05 56.7 °F /  13.7 °C 46.9 °F /  8.3 °C 30.05in /  1017.5hPa Calm   1.0mph /  1.6km/h 70% 0.00in /  0mm 0.0 W/m2
22:11 56.5 °F /  13.6 °C 47.1 °F /  8.4 °C 30.05in /  1017.5hPa Calm   1.0mph /  1.6km/h 71% 0.00in /  0mm 0.0 W/m2
22:17 56.3 °F /  13.5 °C 46.9 °F /  8.3 °C 30.05in /  1017.5hPa ENE 0.9mph /  1.4km/h 1.0mph /  1.6km/h 71% 0.00in /  0mm 0.0 W/m2
22:24 56.1 °F /  13.4 °C 46.8 °F /  8.2 °C 30.05in /  1017.5hPa Calm   1.0mph /  1.6km/h 71% 0.00in /  0mm 0.0 W/m2
22:30 55.9 °F /  13.3 °C 46.8 °F /  8.2 °C 30.05in /  1017.5hPa Calm     71% 0.00in /  0mm 0.0 W/m2
22:36 55.8 °F /  13.2 °C 46.6 °F /  8.1 °C 30.05in /  1017.5hPa Calm     71% 0.00in /  0mm 0.0 W/m2
22:42 55.8 °F /  13.2 °C 46.6 °F /  8.1 °C 30.05in /  1017.5hPa Calm     71% 0.00in /  0mm 0.0 W/m2
22:48 55.6 °F /  13.1 °C 46.8 °F /  8.2 °C 30.05in /  1017.5hPa Calm   1.0mph /  1.6km/h 72% 0.00in /  0mm 0.0 W/m2
22:54 55.4 °F /  13 °C 46.6 °F /  8.1 °C 30.05in /  1017.5hPa East 0.9mph /  1.4km/h 1.0mph /  1.6km/h 72% 0.00in /  0mm 0.0 W/m2
23:00 55.2 °F /  12.9 °C 46.4 °F /  8 °C 30.05in /  1017.5hPa Calm   1.0mph /  1.6km/h 72% 0.00in /  0mm 0.0 W/m2
23:06 55.2 °F /  12.9 °C 46.4 °F /  8 °C 30.05in /  1017.5hPa Calm   1.0mph /  1.6km/h 72% 0.00in /  0mm 0.0 W/m2
23:12 55.0 °F /  12.8 °C 46.2 °F /  7.9 °C 30.05in /  1017.5hPa Calm   2.0mph /  3.2km/h 72% 0.00in /  0mm 0.0 W/m2
23:18 55.0 °F /  12.8 °C 46.2 °F /  7.9 °C 30.06in /  1017.8hPa Calm   1.0mph /  1.6km/h 72% 0.00in /  0mm 0.0 W/m2
23:24 55.0 °F /  12.8 °C 46.2 °F /  7.9 °C 30.05in /  1017.5hPa Calm   2.0mph /  3.2km/h 72% 0.00in /  0mm 0.0 W/m2
23:30 55.0 °F /  12.8 °C 46.2 °F /  7.9 °C 30.05in /  1017.5hPa NE 0.9mph /  1.4km/h 1.0mph /  1.6km/h 72% 0.00in /  0mm 0.0 W/m2
23:37 55.0 °F /  12.8 °C 46.2 °F /  7.9 °C 30.05in /  1017.5hPa East 0.9mph /  1.4km/h 3.0mph /  4.8km/h 72% 0.00in /  0mm 0.0 W/m2
23:42 55.0 °F /  12.8 °C 46.2 °F /  7.9 °C 30.06in /  1017.8hPa Calm   1.0mph /  1.6km/h 72% 0.00in /  0mm 0.0 W/m2
23:49 54.9 °F /  12.7 °C 46.0 °F /  7.8 °C 30.05in /  1017.5hPa East 0.9mph /  1.4km/h 4.0mph /  6.4km/h 72% 0.00in /  0mm 0.0 W/m2
23:55 54.9 °F /  12.7 °C 46.4 °F /  8 °C 30.06in /  1017.8hPa East 0.9mph /  1.4km/h 3.0mph /  4.8km/h 73% 0.00in /  0mm 0.0 W/m2
Olympia, Windhoek, Namibia
Compliments of Weather Underground - 3 mb